Griffithville, Arkansas
Current Conditions -  °F | °C
As of 12:29 AM on Friday 19 Dec 2014 (Local Time) from KSRC Reporting Station
Haze Haze  
Wind Chill: 39°   Ceiling: 1300
Heat Index: 39°   Visibility: 5mi
Dew Point: 39°   Wind: 3mph
Humidity: 100%   Direction: 360°N
Pressure: 30.26"   Gusts: NA
Location:  35.12°N, 91.65°W
Report Text: KSRC 190629Z AUTO 36003KT 5SM BR FEW008 BKN013 OVC039 04/04 A3026 RMK AO2 TSNO
Loading
Personal Weather Stations






























Interactive Weather Map New forecast layout! Learn more

10-Day Weather Forecast

Advertisements
Track Severe Weather on mobile